Redstone Arsenal, Alabama
Current Conditions -  °F | °C
As of 11:58 AM on Thursday 29 Jan 2015 (Local Time) from KHUA Reporting Station
Overcast Overcast  
Wind Chill: 58°   Ceiling: 10000
Heat Index: 58°   Visibility: 10mi
Dew Point: 40°   Wind: 17mph
Humidity: 52%   Direction: 220°SW
Pressure: 30.11"   Gusts: 25mph
Location:  34.6546°N, 86.6455°W
Report Text: KHUA 291758Z AUTO 22015G22KT 10SM OVC100 14/05 A3011 RMK AO2 SLP198 60000 T01430045 10149 20081 57023
Loading
Personal Weather Stations






























Interactive Weather Map New forecast layout! Learn more

10-Day Weather Forecast

Advertisements
Track Severe Weather on mobile